createdAt,value
2023-04-19T00:01:24.740Z,12.77
2023-04-19T00:05:26.979Z,13.47
2023-04-19T00:09:29.207Z,13.77
2023-04-19T00:13:31.069Z,14.53
2023-04-19T00:17:34.034Z,14.37
2023-04-19T00:21:36.055Z,13.37
2023-04-19T00:25:38.107Z,15.17
2023-04-19T00:29:39.957Z,16.47
2023-04-19T00:33:42.935Z,16.07
2023-04-19T00:37:44.682Z,14.37
2023-04-19T00:41:49.008Z,14.67
2023-04-19T00:45:52.388Z,16.60
2023-04-19T00:49:54.630Z,15.90
2023-04-19T00:53:57.542Z,16.90
2023-04-19T00:58:00.178Z,14.97
2023-04-19T01:02:02.116Z,14.70
2023-04-19T01:06:05.012Z,16.30
2023-04-19T01:10:07.302Z,16.73
2023-04-19T01:14:09.556Z,14.70
2023-04-19T01:18:11.495Z,16.17
2023-04-19T01:22:21.623Z,16.83
2023-04-19T01:26:23.527Z,14.27
2023-04-19T01:30:25.551Z,16.63
2023-04-19T01:34:30.650Z,17.23
2023-04-19T01:38:32.508Z,16.17
2023-04-19T01:42:34.520Z,15.77
2023-04-19T01:46:38.868Z,17.23
2023-04-19T01:50:41.172Z,16.67
2023-04-19T01:54:43.246Z,19.07
2023-04-19T01:58:45.090Z,16.80
2023-04-19T02:02:47.632Z,18.43
2023-04-19T02:06:50.670Z,19.77
2023-04-19T02:10:52.780Z,21.17
2023-04-19T02:14:57.966Z,18.67
2023-04-19T02:19:05.036Z,18.17
2023-04-19T02:23:08.397Z,18.87
2023-04-19T02:27:10.364Z,16.67
2023-04-19T02:31:12.345Z,20.60
2023-04-19T02:35:14.152Z,18.30
2023-04-19T02:39:17.201Z,19.30
2023-04-19T02:43:19.119Z,21.17
2023-04-19T02:47:21.318Z,19.13
2023-04-19T02:51:23.232Z,20.83
2023-04-19T02:55:25.598Z,21.37
2023-04-19T02:59:37.537Z,20.40
2023-04-19T03:03:40.443Z,22.83
2023-04-19T03:07:44.464Z,22.20
2023-04-19T03:11:47.113Z,20.83
2023-04-19T03:15:49.212Z,21.30
2023-04-19T03:19:52.669Z,21.30
2023-04-19T03:23:55.890Z,23.70
2023-04-19T03:27:59.573Z,21.50
2023-04-19T03:32:27.388Z,21.47
2023-04-19T03:36:29.366Z,23.10
2023-04-19T03:40:33.880Z,21.20
2023-04-19T03:44:36.446Z,22.67
2023-04-19T03:48:40.778Z,25.60
2023-04-19T03:52:42.766Z,23.10
2023-04-19T03:56:47.868Z,23.83
2023-04-19T04:00:50.841Z,24.77
2023-04-19T04:04:56.606Z,25.23
2023-04-19T04:08:59.378Z,26.47
2023-04-19T04:13:01.318Z,23.00
2023-04-19T04:17:16.160Z,24.33
2023-04-19T04:21:21.539Z,25.00
2023-04-19T04:25:24.409Z,24.93
2023-04-19T04:29:27.182Z,24.80
2023-04-19T04:33:31.345Z,23.57
2023-04-19T04:37:46.984Z,25.00
2023-04-19T04:41:50.022Z,24.10
2023-04-19T04:45:52.155Z,24.00
2023-04-19T04:49:54.423Z,25.40
2023-04-19T04:53:56.731Z,23.63
2023-04-19T04:57:58.777Z,21.83
2023-04-19T05:02:12.848Z,26.03
2023-04-19T05:06:15.344Z,22.37
2023-04-19T05:10:17.667Z,22.23
2023-04-19T05:14:21.148Z,23.40
2023-04-19T05:18:23.441Z,23.53
2023-04-19T05:22:25.726Z,24.97
2023-04-19T05:26:27.917Z,23.20
2023-04-19T05:30:30.280Z,23.53
2023-04-19T05:34:33.256Z,23.33
2023-04-19T05:38:36.006Z,22.87
2023-04-19T05:42:38.756Z,22.70
2023-04-19T05:46:40.762Z,22.23
2023-04-19T05:50:45.821Z,25.97
2023-04-19T05:55:26.061Z,20.37
2023-04-19T05:59:28.402Z,20.70
2023-04-19T06:03:32.328Z,20.97
2023-04-19T06:11:50.134Z,23.53
2023-04-19T06:15:53.404Z,22.30
2023-04-19T06:19:55.677Z,21.73
2023-04-19T06:23:57.756Z,21.00
2023-04-19T06:28:00.367Z,25.17
2023-04-19T06:32:02.431Z,25.30
2023-04-19T06:36:04.808Z,23.37
2023-04-19T06:40:08.455Z,18.60
2023-04-19T06:44:11.652Z,22.30
2023-04-19T06:48:13.736Z,18.10
2023-04-19T06:52:15.689Z,20.20
2023-04-19T06:56:17.583Z,23.30
2023-04-19T07:00:19.796Z,20.63
2023-04-19T07:04:22.065Z,19.60
2023-04-19T07:08:32.231Z,23.30
2023-04-19T07:12:40.735Z,19.50
2023-04-19T07:16:42.671Z,21.27
2023-04-19T07:20:47.441Z,19.70
2023-04-19T07:24:52.066Z,18.73
2023-04-19T07:28:54.132Z,21.63
2023-04-19T07:32:56.186Z,20.27
2023-04-19T07:36:58.182Z,20.10
2023-04-19T07:41:00.221Z,22.33
2023-04-19T07:45:02.185Z,20.90
2023-04-19T07:49:04.402Z,17.87
2023-04-19T07:53:06.524Z,21.00
2023-04-19T07:57:08.974Z,19.87
2023-04-19T08:01:11.273Z,23.90
2023-04-19T08:05:15.370Z,21.37
2023-04-19T08:09:17.636Z,19.97
2023-04-19T08:13:19.628Z,21.30
2023-04-19T08:17:26.946Z,21.13
2023-04-19T08:21:40.700Z,25.23
2023-04-19T08:25:43.650Z,23.40
2023-04-19T08:29:46.295Z,22.33
2023-04-19T08:33:48.233Z,15.07
2023-04-19T08:37:50.490Z,22.50
2023-04-19T08:42:04.932Z,17.87
2023-04-19T08:46:11.436Z,21.17
2023-04-19T08:50:28.298Z,17.50
2023-04-19T08:54:35.826Z,21.33
2023-04-19T09:02:54.613Z,16.60
2023-04-19T09:06:57.041Z,18.13
2023-04-19T09:11:01.454Z,13.17
2023-04-19T09:15:05.181Z,19.07
2023-04-19T09:19:15.563Z,14.70
2023-04-19T09:23:31.413Z,13.07
2023-04-19T09:27:36.513Z,15.03
2023-04-19T09:35:48.215Z,13.55
2023-04-19T09:39:50.599Z,13.07
2023-04-19T09:44:11.696Z,16.57
2023-04-19T09:48:15.904Z,19.85
2023-04-19T09:52:18.209Z,18.63
2023-04-19T09:56:20.477Z,15.43
2023-04-19T10:00:23.197Z,15.17
2023-04-19T10:04:38.497Z,15.03
2023-04-19T10:08:53.540Z,12.40
2023-04-19T10:13:18.305Z,12.87
2023-04-19T10:17:20.349Z,15.03
2023-04-19T10:21:22.933Z,14.60
2023-04-19T10:25:31.215Z,17.10
2023-04-19T10:29:51.720Z,15.70
2023-04-19T10:33:55.306Z,16.77
2023-04-19T10:38:12.772Z,14.70
2023-04-19T10:42:14.615Z,14.20
2023-04-19T10:46:23.198Z,17.43
2023-04-19T10:50:25.564Z,15.47
2023-04-19T10:54:28.596Z,17.03
2023-04-19T10:58:30.473Z,18.07
2023-04-19T11:02:33.709Z,23.33
2023-04-19T11:06:57.209Z,21.43
2023-04-19T11:10:59.352Z,14.83
2023-04-19T11:15:02.008Z,13.90
2023-04-19T11:19:04.071Z,14.40
2023-04-19T11:23:16.762Z,19.73
2023-04-19T11:27:18.917Z,20.80
2023-04-19T11:31:22.233Z,18.10
2023-04-19T11:35:26.496Z,19.10
2023-04-19T11:39:28.572Z,20.90
2023-04-19T11:43:40.768Z,26.10
2023-04-19T11:47:50.229Z,21.00
2023-04-19T11:52:05.392Z,22.90
2023-04-19T11:56:09.040Z,22.17
2023-04-19T12:00:12.112Z,24.87
2023-04-19T12:04:14.594Z,29.57
2023-04-19T12:08:16.772Z,23.33
2023-04-19T12:12:34.348Z,20.43
2023-04-19T12:16:36.391Z,22.73
2023-04-19T12:20:44.015Z,18.13
2023-04-19T12:24:46.054Z,20.03
2023-04-19T12:28:47.954Z,22.37
2023-04-19T12:32:51.480Z,13.73
2023-04-19T12:36:53.651Z,18.50
2023-04-19T12:40:55.968Z,21.80
2023-04-19T12:44:58.036Z,21.23
2023-04-19T12:48:59.986Z,25.10
2023-04-19T12:53:01.988Z,23.40
2023-04-19T12:57:03.950Z,23.27
2023-04-19T13:01:06.443Z,22.27
2023-04-19T13:05:08.944Z,19.00
2023-04-19T13:09:14.936Z,19.27
2023-04-19T13:13:17.285Z,19.93
2023-04-19T13:17:19.869Z,20.73
2023-04-19T13:21:23.540Z,18.67
2023-04-19T13:25:25.665Z,22.20
2023-04-19T13:29:29.150Z,19.53
2023-04-19T13:33:31.453Z,23.07
2023-04-19T13:37:33.422Z,19.10
2023-04-19T13:41:35.649Z,18.33
2023-04-19T13:45:37.804Z,18.20
2023-04-19T13:49:40.673Z,17.37
2023-04-19T13:53:42.609Z,17.83
2023-04-19T13:57:44.615Z,16.53
2023-04-19T14:01:46.615Z,16.67
2023-04-19T14:05:48.685Z,17.33
2023-04-19T14:09:51.692Z,18.73
2023-04-19T14:13:54.125Z,17.37
2023-04-19T14:17:56.315Z,16.73
2023-04-19T14:21:58.279Z,16.00
2023-04-19T14:26:00.339Z,17.00
2023-04-19T14:30:02.764Z,17.13
2023-04-19T14:34:04.728Z,16.20
2023-04-19T14:38:06.807Z,14.70
2023-04-19T14:42:08.839Z,15.80
2023-04-19T14:46:11.007Z,16.27
2023-04-19T14:50:13.050Z,19.17
2023-04-19T14:54:15.367Z,19.20
2023-04-19T14:58:17.147Z,16.57
2023-04-19T15:02:19.198Z,19.00
2023-04-19T15:06:21.288Z,17.47
2023-04-19T15:10:23.313Z,16.47
2023-04-19T15:14:25.242Z,15.07
2023-04-19T15:18:27.150Z,16.37
2023-04-19T15:22:29.027Z,15.83
2023-04-19T15:26:31.064Z,17.97
2023-04-19T15:30:33.021Z,17.23
2023-04-19T15:34:35.149Z,16.10
2023-04-19T15:38:37.132Z,17.00
2023-04-19T15:42:38.984Z,16.70
2023-04-19T15:46:41.369Z,17.00
2023-04-19T15:50:44.319Z,18.87
2023-04-19T15:54:46.416Z,17.83
2023-04-19T15:58:48.256Z,17.67
2023-04-19T16:02:51.642Z,20.23
2023-04-19T16:06:53.809Z,19.00
2023-04-19T16:10:55.725Z,17.50
2023-04-19T16:14:57.752Z,16.10
2023-04-19T16:18:59.969Z,16.63
2023-04-19T16:23:03.528Z,20.03
2023-04-19T16:27:05.784Z,15.07
2023-04-19T16:31:08.157Z,17.50
2023-04-19T16:35:10.392Z,14.33
2023-04-19T16:39:12.759Z,17.63
2023-04-19T16:43:14.715Z,18.73
2023-04-19T16:47:16.887Z,20.33
2023-04-19T16:51:19.001Z,20.57
2023-04-19T16:55:21.693Z,13.60
2023-04-19T16:59:23.647Z,16.67
2023-04-19T17:03:25.839Z,10.70
2023-04-19T17:07:28.024Z,6.53
2023-04-19T17:11:32.437Z,4.47
2023-04-19T17:15:34.434Z,4.43
2023-04-19T17:19:36.767Z,3.23
2023-04-19T17:23:38.894Z,2.57
2023-04-19T17:27:41.006Z,2.13
2023-04-19T17:31:43.106Z,16.77
2023-04-19T17:35:45.120Z,7.30
2023-04-19T17:39:47.005Z,7.30
2023-04-19T17:43:49.001Z,7.83
2023-04-19T17:47:55.305Z,7.53
2023-04-19T17:51:58.275Z,9.67
2023-04-19T17:56:00.413Z,3.70
2023-04-19T18:00:06.534Z,3.93
2023-04-19T18:04:14.717Z,5.13
2023-04-19T18:08:16.868Z,7.70
2023-04-19T18:12:18.764Z,3.10
2023-04-19T18:16:20.996Z,4.07
2023-04-19T18:20:22.875Z,6.97
2023-04-19T18:24:25.037Z,7.47
2023-04-19T18:28:27.349Z,6.27
2023-04-19T18:32:30.207Z,5.23
2023-04-19T18:36:32.504Z,7.43
2023-04-19T18:40:34.564Z,4.80
2023-04-19T18:44:52.799Z,4.23
2023-04-19T18:48:55.578Z,9.03
2023-04-19T18:52:58.453Z,3.57
2023-04-19T19:01:06.569Z,4.47
2023-04-19T19:05:09.571Z,8.33
2023-04-19T19:09:11.785Z,7.63
2023-04-19T19:13:13.627Z,8.40
2023-04-19T19:17:15.810Z,6.87
2023-04-19T19:21:18.597Z,6.40
2023-04-19T19:25:20.816Z,16.23
2023-04-19T19:29:23.185Z,6.60
2023-04-19T19:33:28.363Z,10.87
2023-04-19T19:37:31.099Z,7.27
2023-04-19T19:42:03.212Z,4.03
2023-04-19T19:45:55.546Z,6.97
2023-04-19T19:50:25.454Z,6.10
2023-04-19T19:54:24.521Z,5.27
2023-04-19T19:58:48.161Z,6.37
2023-04-19T20:10:58.719Z,6.23
2023-04-19T20:15:00.658Z,5.43
2023-04-19T20:19:09.447Z,4.27
2023-04-19T20:23:11.485Z,4.07
2023-04-19T20:27:13.658Z,4.73
2023-04-19T20:31:15.890Z,3.50
2023-04-19T20:35:18.319Z,3.60
2023-04-19T20:39:20.389Z,4.40
2023-04-19T20:43:22.511Z,8.67
2023-04-19T20:47:25.695Z,4.20
2023-04-19T20:51:27.605Z,4.83
2023-04-19T20:55:29.854Z,6.37
2023-04-19T20:59:31.785Z,4.67
2023-04-19T21:03:34.011Z,7.83
2023-04-19T21:07:36.183Z,10.20
2023-04-19T21:11:38.114Z,8.40
2023-04-19T21:15:40.243Z,8.47
2023-04-19T21:19:42.298Z,6.97
2023-04-19T21:23:44.257Z,8.17
2023-04-19T21:27:46.475Z,5.83
2023-04-19T21:31:48.632Z,8.83
2023-04-19T21:35:50.937Z,8.60
2023-04-19T21:39:53.146Z,7.60
2023-04-19T21:43:55.469Z,8.60
2023-04-19T21:47:57.730Z,5.37
2023-04-19T21:51:59.878Z,4.83
2023-04-19T21:56:02.975Z,7.80
2023-04-19T22:00:06.862Z,5.87
2023-04-19T22:04:11.661Z,6.83
2023-04-19T22:08:13.731Z,7.50
2023-04-19T22:12:15.713Z,5.33
2023-04-19T22:16:17.959Z,4.20
2023-04-19T22:20:21.107Z,4.37
2023-04-19T22:24:23.137Z,4.83
2023-04-19T22:28:25.421Z,4.27
2023-04-19T22:32:27.480Z,8.47
2023-04-19T22:36:30.561Z,11.53
2023-04-19T22:40:32.353Z,7.57
2023-04-19T22:44:34.166Z,8.20
2023-04-19T22:48:36.378Z,14.90
2023-04-19T22:52:38.431Z,8.83
2023-04-19T22:56:40.601Z,10.70
2023-04-19T23:00:42.579Z,8.03
2023-04-19T23:04:44.775Z,5.93
2023-04-19T23:08:46.876Z,10.30
2023-04-19T23:12:49.011Z,7.50
2023-04-19T23:16:52.259Z,8.93
2023-04-19T23:20:54.266Z,8.60
2023-04-19T23:24:56.469Z,6.43
2023-04-19T23:28:58.640Z,5.60
2023-04-19T23:33:00.679Z,5.97
2023-04-19T23:37:02.661Z,6.80
2023-04-19T23:41:04.822Z,8.53
2023-04-19T23:45:07.197Z,5.67
2023-04-19T23:49:09.082Z,9.33
2023-04-19T23:53:11.629Z,5.87
2023-04-19T23:57:13.565Z,5.53
